• Join FlightAware (Why Join?)
  • Login
  • US Flag 
10:26PM EDT


 

Airport Tracker/Info


-or-


 

Live Flight TrackerFlight Track Log ✈ ASQ5941 ✈ 12-Apr-2013 ✈ KAVP - KORD

Flight Track Log - Related Links

Times and Time Zones

All times are in EDT time to prevent confusion due to time zone crossing. See the ASQ5941 flight status page for this flight to view local times or setup timezone preferences in your user account.

Time Position Orientation Groundspeed Altitude Reporting Facility
EDT Latitude Longitude Course Direction KTS MPH feet Rate Location/Type
06:00PM 41.4189 -75.6567 31° Northeast 210 242 3,700  Level New York Center
06:01PM 41.4789 -75.6636 355° North 214 246 5,900 2,160 Climbing New York Center
06:02PM 41.4408 -75.9648 304° West  Level FlightAware Approximate
06:02PM 41.5308 -75.7175 322° Northwest 200 230 8,100  Level New York Center
06:03PM 41.4957 -76.0553 315° West  Level FlightAware Approximate
06:03PM 41.5594 -75.7833 300° West 211 243 10,000  Level New York Center
06:04PM 41.5552 -76.1412 312° West  Level FlightAware Approximate
06:04PM 41.5850 -75.8656 293° West 229 264 11,800  Level New York Center
06:05PM 41.6139 -75.9650 291° West 263 303 13,000 1,020 Climbing New York Center
06:06PM 41.6425 -76.0753 289° West 291 335 13,900 960 Climbing New York Center
06:07PM 41.6711 -76.1778 291° West 324 373 15,000 1,020 Climbing New York Center
06:08PM 41.7053 -76.2944 291° West 336 387 16,000 1,080 Climbing New York Center
06:09PM 41.7408 -76.4253 290° West 341 392 17,200 1,140 Climbing New York Center
06:10PM 41.7764 -76.5506 291° West 346 398 18,300 1,080 Climbing New York Center
06:11PM 41.8100 -76.6731 290° West 351 404 19,400 1,020 Climbing New York Center
06:12PM 41.8433 -76.7958 290° West 357 411 20,400 1,020 Climbing New York Center
06:16PM 41.9794 -77.2842 291° West 353 406 24,500 1,020 Climbing Cleveland Center
06:17PM 42.0122 -77.4139 289° West 363 418 25,600 1,080 Climbing Cleveland Center
06:18PM 42.0447 -77.5381 289° West 363 418 26,700 1,140 Climbing Cleveland Center
06:19PM 42.0792 -77.6594 291° West 357 411 27,900 1,140 Climbing Cleveland Center
06:20PM 42.1114 -77.7814 290° West 357 411 29,000 1,080 Climbing Cleveland Center
06:21PM 42.1433 -77.9003 290° West 351 404 30,100 1,140 Climbing Cleveland Center
06:22PM 42.1733 -78.0194 289° West 345 397 31,300 1,200 Climbing Cleveland Center
06:23PM 42.2050 -78.1389 290° West 340 391 32,500 1,140 Climbing Cleveland Center
06:24PM 42.2367 -78.2611 289° West 340 391 33,600 480 Climbing Cleveland Center
06:26PM 42.2870 -78.4694 288° West  Level FlightAware Approximate
06:29PM 42.4111 -78.9550 274° West 414 476 36,000  Level Cleveland Center
06:30PM 42.4464 -79.0892 290° West 393 452 36,000  Level Cleveland Center
06:31PM 42.4858 -79.2514 288° West 395 455 36,000  Level Cleveland Center
06:32PM 42.4978 -79.3975 276° West 395 455 36,000  Level Cleveland Center
06:33PM 42.4811 -79.2575 289° West  Level FlightAware Approximate
06:33PM 42.5033 -79.5186 274° West 400 460 36,000  Level Cleveland Center
06:34PM 42.4890 -79.3756 274° West  Level FlightAware Approximate
06:34PM 42.5131 -79.6931 274° West 400 460 36,000  Level Cleveland Center
06:35PM 42.5203 -79.8142 275° West 400 460 36,000  Level Cleveland Center
06:36PM 42.5253 -79.9917 272° West 400 460 36,000  Level Cleveland Center
06:37PM 42.5303 -80.1381 273° West 400 460 36,000  Level Cleveland Center
06:38PM 42.5369 -80.2900 273° West 400 460 36,000  Level Cleveland Center
06:39PM 42.5436 -80.4367 274° West 405 466 36,000  Level Cleveland Center
06:40PM 42.5497 -80.5889 273° West 405 466 36,000  Level Cleveland Center
06:41PM 42.5558 -80.7411 273° West 405 466 36,000  Level Cleveland Center
06:42PM 42.5619 -80.8933 273° West 405 466 36,000  Level Cleveland Center
06:43PM 42.5675 -81.0511 273° West 410 472 36,000  Level Cleveland Center
06:44PM 42.5731 -81.2033 273° West 410 472 36,000  Level Cleveland Center
06:45PM 42.5764 -81.3417 272° West 410 472 36,000  Level Cleveland Center
06:46PM 42.5878 -81.4911 276° West 405 466 36,000  Level Cleveland Center
06:47PM 42.6158 -81.6411 284° West 411 473 36,000  Level Cleveland Center
06:48PM 42.6414 -81.7883 283° West 411 473 36,000  Level Cleveland Center
06:49PM 42.6689 -81.9414 284° West 411 473 36,000  Level Cleveland Center
06:50PM 42.6942 -82.0917 283° West 411 473 36,000  Level Cleveland Center
06:51PM 42.7192 -82.2419 283° West 411 473 36,000  Level Cleveland Center
06:52PM 42.7336 -82.3950 277° West 411 473 36,000  Level Cleveland Center
06:53PM 42.7478 -82.5511 277° West 411 473 36,000  Level Cleveland Center
06:54PM 42.7594 -82.7069 276° West 411 473 36,000  Level Cleveland Center
06:55PM 42.7711 -82.8628 276° West 411 473 36,000  Level Cleveland Center
06:56PM 42.7825 -83.0189 276° West 416 479 36,000  Level Cleveland Center
06:57PM 42.7917 -83.1778 275° West 416 479 36,000 -120 Level Cleveland Center
06:58PM 42.8047 -83.3283 277° West 421 484 35,800 -960 Descending Cleveland Center
06:59PM 42.8136 -83.4814 275° West 416 479 34,100 -1,560 Descending Cleveland Center
07:00PM 42.8244 -83.6264 276° West 404 465 32,700 -1,080 Descending Cleveland Center
07:01PM 42.8331 -83.7711 275° West 394 453 32,000 -360 Descending Cleveland Center
07:02PM 42.8392 -83.9217 273° West 394 453 32,000  Level Cleveland Center
07:03PM 42.8428 -84.0778 272° West 401 461 32,000  Level Cleveland Center
07:04PM 42.8444 -84.2278 271° West 407 468 32,000  Level Cleveland Center
07:05PM 42.8475 -84.3894 272° West 402 463 32,000  Level Cleveland Center
07:06PM 42.8444 -84.5394 268° West 397 457 32,000  Level Cleveland Center
07:08PM 42.8497 -84.7425 272° West 401 461 32,000  Level Chicago Center
07:09PM 42.8489 -84.8975 270° West 407 468 32,000  Level Chicago Center
07:10PM 42.8353 -85.0514 263° West 409 471 32,000  Level Chicago Center
07:11PM 42.8186 -85.2036 262° West 408 470 32,000  Level Chicago Center
07:12PM 42.8025 -85.3558 262° West 407 468 32,000 -480 Level Chicago Center
07:13PM 42.7806 -85.5339 261° West 400 460 31,100 -1,560 Descending Chicago Center
07:14PM 42.7542 -85.6825 256° West 400 460 28,800 -2,220 Descending Chicago Center
07:15PM 42.7269 -85.8317 256° West 404 465 26,500 -2,340 Descending Chicago Center
07:16PM 42.7003 -85.9781 256° West 398 458 24,000 -2,460 Descending Chicago Center
07:17PM 42.6742 -86.1200 256° West 389 448 21,500 -1,980 Descending Chicago Center
07:18PM 42.6492 -86.2542 256° West 370 426 20,000 -1,020 Descending Chicago Center
07:19PM 42.6231 -86.3892 255° West 368 423 19,400 -1,680 Descending Chicago Center
07:20PM 42.5944 -86.5456 256° West 355 409 16,600 -2,400 Descending Chicago Center
07:21PM 42.5708 -86.6717 256° West 347 399 14,500 -1,980 Descending Chicago Center
07:22PM 42.5442 -86.7900 253° West 334 384 12,600 -1,860 Descending Chicago Center
07:23PM 42.5136 -86.9042 250° West 327 376 10,700 -1,260 Descending Chicago Center
07:24PM 42.4828 -87.0147 249° West 317 365 10,100 -360 Descending Chicago Center
07:26PM 42.4333 -87.2000 250° West 308 354 9,800 -360 Descending Chicago TRACON
07:26PM 42.4222 -87.2317 245° Southwest 304 350 9,400 -540 Descending Chicago Center
07:27PM 42.3622 -87.2794 210° Southwest 265 305 9,000 -300 Descending Chicago Center
07:29PM 42.2842 -87.2606 170° South 274 315 8,900 -480 Descending Chicago Center
07:30PM 42.2111 -87.2419 169° South 268 308 8,100 -600 Descending Chicago Center
07:31PM 42.1433 -87.2286 172° South 246 283 7,700 -600 Descending Chicago Center
07:32PM 42.0789 -87.2167 172° South 236 272 6,900 -360 Descending Chicago Center
07:33PM 42.0183 -87.2181 181° South 226 260 7,000  Climbing Chicago Center
07:34PM 41.9794 -87.3000 237° Southwest 217 250 7,000  Level Chicago Center
07:35PM 41.9847 -87.3794 275° West 212 244 7,000 60 Level Chicago Center
07:35PM 41.9833 -87.4000 265° West 214 246 7,100  Climbing Chicago TRACON
07:36PM 41.9833 -87.4833 270° West 205 236 7,000 -600 Descending Chicago TRACON
07:37PM 41.9833 -87.5500 270° West 175 201 6,000 -960 Descending Chicago TRACON
07:38PM 41.9833 -87.6000 270° West 149 171 5,100 -900 Descending Chicago TRACON
07:39PM 41.9833 -87.6667 270° West 141 162 4,200 -900 Descending Chicago TRACON
07:40PM 41.9833 -87.7167 270° West 138 159 3,400 -840 Descending Chicago TRACON
07:41PM 41.9833 -87.7667 270° West 129 148 2,600 -840 Descending Chicago TRACON